sensor_id;sensor_type;location;lat;lon;timestamp;pressure;altitude;pressure_sealevel;temperature;humidity
54369;BME280;40266;52.434;17.056;2023-03-13T00:00:02;99810.08;;;1.13;90.08
54369;BME280;40266;52.434;17.056;2023-03-13T00:02:46;99798.90;;;1.13;89.76
54369;BME280;40266;52.434;17.056;2023-03-13T00:05:29;99795.48;;;1.15;89.98
54369;BME280;40266;52.434;17.056;2023-03-13T00:08:12;99798.93;;;1.18;90.57
54369;BME280;40266;52.434;17.056;2023-03-13T00:10:55;99802.88;;;1.19;90.73
54369;BME280;40266;52.434;17.056;2023-03-13T00:13:38;99800.66;;;1.20;90.73
54369;BME280;40266;52.434;17.056;2023-03-13T00:16:22;99799.98;;;1.21;90.99
54369;BME280;40266;52.434;17.056;2023-03-13T00:19:06;99800.18;;;1.24;91.09
54369;BME280;40266;52.434;17.056;2023-03-13T00:21:50;99802.27;;;1.26;91.18
54369;BME280;40266;52.434;17.056;2023-03-13T00:24:33;99804.33;;;1.29;91.23
54369;BME280;40266;52.434;17.056;2023-03-13T00:27:16;99805.05;;;1.31;91.40
54369;BME280;40266;52.434;17.056;2023-03-13T00:29:59;99802.45;;;1.33;91.27
54369;BME280;40266;52.434;17.056;2023-03-13T00:32:45;99802.13;;;1.34;91.77
54369;BME280;40266;52.434;17.056;2023-03-13T00:35:29;99799.73;;;1.37;91.85
54369;BME280;40266;52.434;17.056;2023-03-13T00:38:12;99799.73;;;1.39;91.83
54369;BME280;40266;52.434;17.056;2023-03-13T00:41:14;99792.36;;;1.42;92.07
54369;BME280;40266;52.434;17.056;2023-03-13T00:43:58;99785.15;;;1.45;92.10
54369;BME280;40266;52.434;17.056;2023-03-13T00:46:41;99777.25;;;1.46;92.10
54369;BME280;40266;52.434;17.056;2023-03-13T00:49:24;99776.39;;;1.47;92.24
54369;BME280;40266;52.434;17.056;2023-03-13T00:52:07;99771.93;;;1.49;92.64
54369;BME280;40266;52.434;17.056;2023-03-13T00:54:49;99772.80;;;1.52;92.62
54369;BME280;40266;52.434;17.056;2023-03-13T00:57:33;99764.20;;;1.54;92.51
54369;BME280;40266;52.434;17.056;2023-03-13T01:00:19;99764.56;;;1.56;92.77
54369;BME280;40266;52.434;17.056;2023-03-13T01:03:02;99768.52;;;1.59;92.86
54369;BME280;40266;52.434;17.056;2023-03-13T01:05:57;99770.79;;;1.62;93.05
54369;BME280;40266;52.434;17.056;2023-03-13T01:08:41;99773.90;;;1.64;93.01
54369;BME280;40266;52.434;17.056;2023-03-13T01:11:26;99768.91;;;1.68;93.50
54369;BME280;40266;52.434;17.056;2023-03-13T01:14:13;99769.11;;;1.72;93.58
54369;BME280;40266;52.434;17.056;2023-03-13T01:16:56;99765.67;;;1.75;93.52
54369;BME280;40266;52.434;17.056;2023-03-13T01:19:39;99769.98;;;1.78;93.54
54369;BME280;40266;52.434;17.056;2023-03-13T01:22:23;99768.63;;;1.81;93.88
54369;BME280;40266;52.434;17.056;2023-03-13T01:25:07;99765.89;;;1.85;94.15
54369;BME280;40266;52.434;17.056;2023-03-13T01:27:50;99763.65;;;1.88;94.20
54369;BME280;40266;52.434;17.056;2023-03-13T01:30:33;99762.80;;;1.92;94.27
54369;BME280;40266;52.434;17.056;2023-03-13T01:33:16;99759.20;;;1.95;94.37
54369;BME280;40266;52.434;17.056;2023-03-13T01:36:01;99758.35;;;1.98;94.55
54369;BME280;40266;52.434;17.056;2023-03-13T01:38:49;99752.67;;;2.02;94.89
54369;BME280;40266;52.434;17.056;2023-03-13T01:41:32;99748.04;;;2.05;94.77
54369;BME280;40266;52.434;17.056;2023-03-13T01:44:24;99757.86;;;2.09;94.59
54369;BME280;40266;52.434;17.056;2023-03-13T01:47:08;99743.56;;;2.13;94.99
54369;BME280;40266;52.434;17.056;2023-03-13T01:50:30;99745.48;;;2.18;95.37
54369;BME280;40266;52.434;17.056;2023-03-13T01:53:27;99749.79;;;2.22;95.16
54369;BME280;40266;52.434;17.056;2023-03-13T01:56:22;99748.59;;;2.27;95.43
54369;BME280;40266;52.434;17.056;2023-03-13T01:59:14;99748.09;;;2.30;95.77
54369;BME280;40266;52.434;17.056;2023-03-13T02:02:22;99741.19;;;2.35;96.25
54369;BME280;40266;52.434;17.056;2023-03-13T02:05:34;99744.46;;;2.40;96.25
54369;BME280;40266;52.434;17.056;2023-03-13T02:08:28;99740.67;;;2.45;96.34
54369;BME280;40266;52.434;17.056;2023-03-13T02:11:41;99738.44;;;2.49;96.32
54369;BME280;40266;52.434;17.056;2023-03-13T02:14:52;99745.34;;;2.54;96.71
54369;BME280;40266;52.434;17.056;2023-03-13T02:18:19;99743.09;;;2.59;97.05
54369;BME280;40266;52.434;17.056;2023-03-13T02:32:06;99742.76;;;2.79;97.38
54369;BME280;40266;52.434;17.056;2023-03-13T02:35:06;99733.77;;;2.84;97.43
54369;BME280;40266;52.434;17.056;2023-03-13T02:38:47;99728.25;;;2.89;97.30
54369;BME280;40266;52.434;17.056;2023-03-13T02:45:27;99726.16;;;2.97;97.63
54369;BME280;40266;52.434;17.056;2023-03-13T02:49:09;99724.27;;;3.00;97.15
54369;BME280;40266;52.434;17.056;2023-03-13T02:52:28;99720.63;;;3.03;97.46
54369;BME280;40266;52.434;17.056;2023-03-13T02:55:58;99726.31;;;3.06;97.46
54369;BME280;40266;52.434;17.056;2023-03-13T02:58:48;99723.73;;;3.09;97.55
54369;BME280;40266;52.434;17.056;2023-03-13T03:05:12;99725.27;;;3.13;97.47
54369;BME280;40266;52.434;17.056;2023-03-13T03:08:16;99722.84;;;3.15;97.29
54369;BME280;40266;52.434;17.056;2023-03-13T03:10:59;99726.63;;;3.15;97.48
54369;BME280;40266;52.434;17.056;2023-03-13T03:21:27;99728.70;;;3.20;97.61
54369;BME280;40266;52.434;17.056;2023-03-13T03:25:03;99726.64;;;3.21;97.90
54369;BME280;40266;52.434;17.056;2023-03-13T03:27:59;99724.73;;;3.21;97.95
54369;BME280;40266;52.434;17.056;2023-03-13T03:31:03;99720.07;;;3.22;98.13
54369;BME280;40266;52.434;17.056;2023-03-13T03:34:13;99719.21;;;3.23;97.85
54369;BME280;40266;52.434;17.056;2023-03-13T03:37:49;99713.33;;;3.25;98.23
54369;BME280;40266;52.434;17.056;2023-03-13T03:40:54;99704.02;;;3.27;98.25
54369;BME280;40266;52.434;17.056;2023-03-13T04:01:51;99694.14;;;3.38;98.90
54369;BME280;40266;52.434;17.056;2023-03-13T04:08:52;99686.17;;;3.42;99.06
54369;BME280;40266;52.434;17.056;2023-03-13T04:12:16;99681.16;;;3.44;99.38
54369;BME280;40266;52.434;17.056;2023-03-13T04:15:07;99679.09;;;3.46;99.36
54369;BME280;40266;52.434;17.056;2023-03-13T04:18:47;99673.20;;;3.48;99.92
54369;BME280;40266;52.434;17.056;2023-03-13T04:26:01;99663.67;;;3.53;99.93
54369;BME280;40266;52.434;17.056;2023-03-13T04:29:22;99660.92;;;3.53;100.00
54369;BME280;40266;52.434;17.056;2023-03-13T04:36:11;99643.50;;;3.52;100.00
54369;BME280;40266;52.434;17.056;2023-03-13T04:39:15;99641.09;;;3.50;99.70
54369;BME280;40266;52.434;17.056;2023-03-13T04:42:40;99636.42;;;3.50;99.92
54369;BME280;40266;52.434;17.056;2023-03-13T04:53:52;99629.70;;;3.49;100.00
54369;BME280;40266;52.434;17.056;2023-03-13T05:01:20;99625.89;;;3.51;100.00
54369;BME280;40266;52.434;17.056;2023-03-13T05:05:09;99623.48;;;3.51;100.00
54369;BME280;40266;52.434;17.056;2023-03-13T05:15:22;99618.80;;;3.53;100.00
54369;BME280;40266;52.434;17.056;2023-03-13T05:18:44;99617.24;;;3.54;100.00
54369;BME280;40266;52.434;17.056;2023-03-13T05:22:32;99616.72;;;3.57;100.00
54369;BME280;40266;52.434;17.056;2023-03-13T05:30:00;99605.06;;;3.70;100.00
54369;BME280;40266;52.434;17.056;2023-03-13T05:33:11;99603.11;;;3.77;100.00
54369;BME280;40266;52.434;17.056;2023-03-13T05:36:38;99603.92;;;3.85;100.00
54369;BME280;40266;52.434;17.056;2023-03-13T05:39:56;99601.80;;;3.92;100.00
54369;BME280;40266;52.434;17.056;2023-03-13T05:51:11;99592.93;;;4.20;100.00
54369;BME280;40266;52.434;17.056;2023-03-13T05:54:55;99590.58;;;4.31;100.00
54369;BME280;40266;52.434;17.056;2023-03-13T05:57:57;99590.15;;;4.40;100.00
54369;BME280;40266;52.434;17.056;2023-03-13T06:01:27;99587.11;;;4.51;100.00
54369;BME280;40266;52.434;17.056;2023-03-13T06:04:42;99578.14;;;4.65;100.00
54369;BME280;40266;52.434;17.056;2023-03-13T06:08:20;99571.27;;;4.76;100.00
54369;BME280;40266;52.434;17.056;2023-03-13T06:11:22;99567.52;;;4.87;100.00
54369;BME280;40266;52.434;17.056;2023-03-13T06:14:11;99567.23;;;4.96;100.00
54369;BME280;40266;52.434;17.056;2023-03-13T06:17:26;99564.51;;;5.07;100.00
54369;BME280;40266;52.434;17.056;2023-03-13T06:20:18;99559.85;;;5.18;100.00
54369;BME280;40266;52.434;17.056;2023-03-13T06:23:01;99558.30;;;5.30;100.00
54369;BME280;40266;52.434;17.056;2023-03-13T06:25:47;99554.85;;;5.42;100.00
54369;BME280;40266;52.434;17.056;2023-03-13T06:28:54;99550.71;;;5.53;100.00
54369;BME280;40266;52.434;17.056;2023-03-13T06:31:40;99545.41;;;5.60;100.00
54369;BME280;40266;52.434;17.056;2023-03-13T06:34:26;99540.48;;;5.65;100.00
54369;BME280;40266;52.434;17.056;2023-03-13T06:37:33;99538.99;;;5.71;100.00
54369;BME280;40266;52.434;17.056;2023-03-13T06:40:17;99536.63;;;5.79;100.00
54369;BME280;40266;52.434;17.056;2023-03-13T06:43:22;99534.60;;;5.87;100.00
54369;BME280;40266;52.434;17.056;2023-03-13T06:46:06;99530.33;;;5.95;100.00
54369;BME280;40266;52.434;17.056;2023-03-13T06:49:01;99523.10;;;6.02;100.00
54369;BME280;40266;52.434;17.056;2023-03-13T06:51:59;99519.87;;;6.08;100.00
54369;BME280;40266;52.434;17.056;2023-03-13T06:54:57;99514.59;;;6.13;100.00
54369;BME280;40266;52.434;17.056;2023-03-13T06:58:02;99512.94;;;6.18;100.00
54369;BME280;40266;52.434;17.056;2023-03-13T07:00:49;99513.37;;;6.24;100.00
54369;BME280;40266;52.434;17.056;2023-03-13T07:04:15;99506.69;;;6.28;100.00
54369;BME280;40266;52.434;17.056;2023-03-13T07:06:59;99509.31;;;6.36;100.00
54369;BME280;40266;52.434;17.056;2023-03-13T07:09:57;99496.41;;;6.41;100.00
54369;BME280;40266;52.434;17.056;2023-03-13T07:12:43;99496.21;;;6.50;100.00
54369;BME280;40266;52.434;17.056;2023-03-13T07:24:57;99470.80;;;6.96;100.00
54369;BME280;40266;52.434;17.056;2023-03-13T07:27:54;99466.48;;;7.03;100.00
54369;BME280;40266;52.434;17.056;2023-03-13T07:30:53;99470.48;;;7.10;100.00
54369;BME280;40266;52.434;17.056;2023-03-13T07:37:17;99467.83;;;7.21;100.00
54369;BME280;40266;52.434;17.056;2023-03-13T07:40:08;99461.85;;;7.23;100.00
54369;BME280;40266;52.434;17.056;2023-03-13T07:42:55;99460.70;;;7.28;100.00
54369;BME280;40266;52.434;17.056;2023-03-13T07:48:42;99452.96;;;7.39;100.00
54369;BME280;40266;52.434;17.056;2023-03-13T07:51:28;99448.55;;;7.43;100.00
54369;BME280;40266;52.434;17.056;2023-03-13T07:54:47;99445.88;;;7.45;100.00
54369;BME280;40266;52.434;17.056;2023-03-13T07:57:32;99441.38;;;7.52;100.00
54369;BME280;40266;52.434;17.056;2023-03-13T08:00:15;99439.79;;;7.59;100.00
54369;BME280;40266;52.434;17.056;2023-03-13T08:03:28;99432.20;;;7.64;100.00
54369;BME280;40266;52.434;17.056;2023-03-13T08:06:13;99422.81;;;7.72;100.00
54369;BME280;40266;52.434;17.056;2023-03-13T08:09:17;99420.69;;;7.79;99.99
54369;BME280;40266;52.434;17.056;2023-03-13T08:12:08;99421.17;;;7.88;99.82
54369;BME280;40266;52.434;17.056;2023-03-13T08:15:03;99413.20;;;7.93;99.45
54369;BME280;40266;52.434;17.056;2023-03-13T08:18:16;99409.77;;;7.98;99.06
54369;BME280;40266;52.434;17.056;2023-03-13T08:21:01;99413.84;;;8.01;98.79
54369;BME280;40266;52.434;17.056;2023-03-13T08:23:51;99404.88;;;8.05;98.42
54369;BME280;40266;52.434;17.056;2023-03-13T08:26:39;99402.38;;;8.08;98.10
54369;BME280;40266;52.434;17.056;2023-03-13T08:29:23;99391.66;;;8.11;98.03
54369;BME280;40266;52.434;17.056;2023-03-13T08:32:06;99382.00;;;8.15;97.83
54369;BME280;40266;52.434;17.056;2023-03-13T08:34:52;99374.10;;;8.18;97.60
54369;BME280;40266;52.434;17.056;2023-03-13T08:38:10;99370.06;;;8.19;97.31
54369;BME280;40266;52.434;17.056;2023-03-13T08:40:56;99364.25;;;8.22;97.21
54369;BME280;40266;52.434;17.056;2023-03-13T08:44:03;99364.83;;;8.26;97.01
54369;BME280;40266;52.434;17.056;2023-03-13T08:46:47;99368.14;;;8.32;97.06
54369;BME280;40266;52.434;17.056;2023-03-13T08:49:31;99364.31;;;8.38;96.76
54369;BME280;40266;52.434;17.056;2023-03-13T08:52:23;99349.20;;;8.43;96.16
54369;BME280;40266;52.434;17.056;2023-03-13T08:55:19;99338.94;;;8.50;96.03
54369;BME280;40266;52.434;17.056;2023-03-13T08:58:02;99339.61;;;8.56;95.86
54369;BME280;40266;52.434;17.056;2023-03-13T09:01:03;99332.86;;;8.61;95.65
54369;BME280;40266;52.434;17.056;2023-03-13T09:03:59;99333.95;;;8.65;95.29
54369;BME280;40266;52.434;17.056;2023-03-13T09:06:46;99333.20;;;8.67;94.88
54369;BME280;40266;52.434;17.056;2023-03-13T09:09:29;99333.08;;;8.71;94.36
54369;BME280;40266;52.434;17.056;2023-03-13T09:12:12;99330.36;;;8.74;94.39
54369;BME280;40266;52.434;17.056;2023-03-13T09:15:11;99323.25;;;8.78;94.12
54369;BME280;40266;52.434;17.056;2023-03-13T09:17:55;99308.02;;;8.81;94.35
54369;BME280;40266;52.434;17.056;2023-03-13T09:20:38;99301.33;;;8.89;94.33
54369;BME280;40266;52.434;17.056;2023-03-13T09:23:22;99295.13;;;8.93;94.22
54369;BME280;40266;52.434;17.056;2023-03-13T09:26:05;99285.45;;;9.00;94.42
54369;BME280;40266;52.434;17.056;2023-03-13T09:28:50;99279.20;;;9.05;93.97
54369;BME280;40266;52.434;17.056;2023-03-13T09:31:33;99271.33;;;9.12;94.09
54369;BME280;40266;52.434;17.056;2023-03-13T09:34:28;99266.44;;;9.22;93.63
54369;BME280;40266;52.434;17.056;2023-03-13T09:37:38;99259.44;;;9.33;93.29
54369;BME280;40266;52.434;17.056;2023-03-13T09:40:23;99252.45;;;9.48;93.53
54369;BME280;40266;52.434;17.056;2023-03-13T09:43:20;99249.45;;;9.60;93.38
54369;BME280;40266;52.434;17.056;2023-03-13T09:46:30;99242.25;;;9.66;93.02
54369;BME280;40266;52.434;17.056;2023-03-13T09:52:29;99241.23;;;9.60;91.86
54369;BME280;40266;52.434;17.056;2023-03-13T09:55:19;99234.66;;;9.49;91.97
54369;BME280;40266;52.434;17.056;2023-03-13T09:58:12;99229.93;;;9.45;92.63
54369;BME280;40266;52.434;17.056;2023-03-13T10:01:03;99226.58;;;9.41;92.33
54369;BME280;40266;52.434;17.056;2023-03-13T10:04:04;99228.40;;;9.39;92.20
54369;BME280;40266;52.434;17.056;2023-03-13T10:06:48;99235.58;;;9.38;92.65
54369;BME280;40266;52.434;17.056;2023-03-13T10:09:33;99231.64;;;9.41;93.07
54369;BME280;40266;52.434;17.056;2023-03-13T10:12:36;99227.95;;;9.42;92.86
54369;BME280;40266;52.434;17.056;2023-03-13T10:15:32;99219.52;;;9.38;92.88
54369;BME280;40266;52.434;17.056;2023-03-13T10:18:18;99212.61;;;9.37;92.94
54369;BME280;40266;52.434;17.056;2023-03-13T10:21:18;99209.88;;;9.36;92.94
54369;BME280;40266;52.434;17.056;2023-03-13T10:26:56;99202.88;;;9.36;93.12
54369;BME280;40266;52.434;17.056;2023-03-13T10:29:59;99206.02;;;9.36;93.32
54369;BME280;40266;52.434;17.056;2023-03-13T10:36:10;99198.46;;;9.23;93.23
54369;BME280;40266;52.434;17.056;2023-03-13T10:39:28;99195.59;;;9.16;93.57
54369;BME280;40266;52.434;17.056;2023-03-13T10:42:22;99190.73;;;9.10;93.86
54369;BME280;40266;52.434;17.056;2023-03-13T10:45:18;99185.45;;;9.02;93.95
54369;BME280;40266;52.434;17.056;2023-03-13T10:48:35;99190.05;;;8.95;94.52
54369;BME280;40266;52.434;17.056;2023-03-13T10:51:24;99184.64;;;8.91;94.91
54369;BME280;40266;52.434;17.056;2023-03-13T10:54:24;99181.61;;;8.87;95.23
54369;BME280;40266;52.434;17.056;2023-03-13T10:57:37;99173.58;;;8.83;95.75
54369;BME280;40266;52.434;17.056;2023-03-13T11:00:33;99170.39;;;8.85;95.99
54369;BME280;40266;52.434;17.056;2023-03-13T11:03:32;99160.34;;;8.88;96.51
54369;BME280;40266;52.434;17.056;2023-03-13T11:09:18;99158.36;;;8.90;97.04
54369;BME280;40266;52.434;17.056;2023-03-13T11:12:05;99150.66;;;8.91;97.29
54369;BME280;40266;52.434;17.056;2023-03-13T11:14:58;99152.27;;;8.95;97.76
54369;BME280;40266;52.434;17.056;2023-03-13T11:17:45;99150.08;;;8.97;98.01
54369;BME280;40266;52.434;17.056;2023-03-13T11:20:42;99145.69;;;8.98;98.31
54369;BME280;40266;52.434;17.056;2023-03-13T11:23:29;99139.50;;;8.96;98.64
54369;BME280;40266;52.434;17.056;2023-03-13T11:26:31;99132.60;;;8.95;98.75
54369;BME280;40266;52.434;17.056;2023-03-13T11:32:42;99132.94;;;8.95;99.50
54369;BME280;40266;52.434;17.056;2023-03-13T11:38:39;99113.41;;;8.91;99.82
54369;BME280;40266;52.434;17.056;2023-03-13T11:41:48;99123.76;;;8.89;99.96
54369;BME280;40266;52.434;17.056;2023-03-13T11:57:38;99103.47;;;8.76;100.00
54369;BME280;40266;52.434;17.056;2023-03-13T12:00:41;99108.61;;;8.74;100.00
54369;BME280;40266;52.434;17.056;2023-03-13T12:06:27;99103.49;;;8.75;100.00
54369;BME280;40266;52.434;17.056;2023-03-13T12:09:32;99100.01;;;8.76;100.00
54369;BME280;40266;52.434;17.056;2023-03-13T12:15:50;99086.94;;;8.76;100.00
54369;BME280;40266;52.434;17.056;2023-03-13T12:18:43;99091.10;;;8.77;100.00
54369;BME280;40266;52.434;17.056;2023-03-13T12:21:31;99075.73;;;8.78;100.00
54369;BME280;40266;52.434;17.056;2023-03-13T12:24:39;99069.59;;;8.79;100.00
54369;BME280;40266;52.434;17.056;2023-03-13T12:27:30;99068.34;;;8.81;100.00
54369;BME280;40266;52.434;17.056;2023-03-13T12:30:36;99064.52;;;8.81;100.00
54369;BME280;40266;52.434;17.056;2023-03-13T12:33:34;99063.39;;;8.82;100.00
54369;BME280;40266;52.434;17.056;2023-03-13T12:36:30;99058.20;;;8.86;100.00
54369;BME280;40266;52.434;17.056;2023-03-13T12:39:48;99056.20;;;8.89;100.00
54369;BME280;40266;52.434;17.056;2023-03-13T12:45:37;99042.58;;;8.95;100.00
54369;BME280;40266;52.434;17.056;2023-03-13T12:54:08;99035.02;;;9.06;100.00
54369;BME280;40266;52.434;17.056;2023-03-13T13:00:01;99025.68;;;9.14;100.00
54369;BME280;40266;52.434;17.056;2023-03-13T13:06:16;99009.49;;;9.18;100.00
54369;BME280;40266;52.434;17.056;2023-03-13T13:09:08;99007.42;;;9.22;100.00
54369;BME280;40266;52.434;17.056;2023-03-13T13:23:23;98984.83;;;9.39;100.00
54369;BME280;40266;52.434;17.056;2023-03-13T13:32:28;98976.86;;;9.46;100.00
54369;BME280;40266;52.434;17.056;2023-03-13T13:41:03;98966.77;;;9.67;100.00
54369;BME280;40266;52.434;17.056;2023-03-13T13:43:49;98970.15;;;9.74;100.00
54369;BME280;40266;52.434;17.056;2023-03-13T13:46:52;98973.74;;;9.80;100.00
54369;BME280;40266;52.434;17.056;2023-03-13T13:49:50;98967.83;;;9.84;100.00
54369;BME280;40266;52.434;17.056;2023-03-13T13:52:36;98963.34;;;9.91;100.00
54369;BME280;40266;52.434;17.056;2023-03-13T13:55:40;98960.08;;;9.99;100.00
54369;BME280;40266;52.434;17.056;2023-03-13T13:58:27;98959.57;;;10.06;100.00
54369;BME280;40266;52.434;17.056;2023-03-13T14:01:15;98958.92;;;10.13;100.00
54369;BME280;40266;52.434;17.056;2023-03-13T14:04:09;98957.06;;;10.16;100.00
54369;BME280;40266;52.434;17.056;2023-03-13T14:06:59;98960.59;;;10.19;100.00
54369;BME280;40266;52.434;17.056;2023-03-13T14:12:59;98966.45;;;10.21;100.00
54369;BME280;40266;52.434;17.056;2023-03-13T14:15:48;98961.45;;;10.19;100.00
54369;BME280;40266;52.434;17.056;2023-03-13T14:18:34;98956.52;;;10.20;100.00
54369;BME280;40266;52.434;17.056;2023-03-13T14:21:24;98950.17;;;10.22;100.00
54369;BME280;40266;52.434;17.056;2023-03-13T14:24:14;98950.90;;;10.25;100.00
54369;BME280;40266;52.434;17.056;2023-03-13T14:26:58;98948.38;;;10.27;100.00
54369;BME280;40266;52.434;17.056;2023-03-13T14:30:02;98945.09;;;10.27;100.00
54369;BME280;40266;52.434;17.056;2023-03-13T14:32:46;98933.70;;;10.28;100.00
54369;BME280;40266;52.434;17.056;2023-03-13T14:35:29;98935.89;;;10.30;100.00
54369;BME280;40266;52.434;17.056;2023-03-13T14:38:21;98935.22;;;10.33;100.00
54369;BME280;40266;52.434;17.056;2023-03-13T14:41:05;98933.39;;;10.40;100.00
54369;BME280;40266;52.434;17.056;2023-03-13T14:43:48;98935.15;;;10.43;100.00
54369;BME280;40266;52.434;17.056;2023-03-13T14:46:36;98931.90;;;10.49;100.00
54369;BME280;40266;52.434;17.056;2023-03-13T14:49:25;98933.24;;;10.50;100.00
54369;BME280;40266;52.434;17.056;2023-03-13T14:52:19;98930.06;;;10.51;100.00
54369;BME280;40266;52.434;17.056;2023-03-13T14:55:24;98929.63;;;10.53;100.00
54369;BME280;40266;52.434;17.056;2023-03-13T14:58:27;98926.00;;;10.56;100.00
54369;BME280;40266;52.434;17.056;2023-03-13T15:01:23;98927.09;;;10.59;100.00
54369;BME280;40266;52.434;17.056;2023-03-13T15:04:12;98928.40;;;10.61;100.00
54369;BME280;40266;52.434;17.056;2023-03-13T15:07:02;98925.11;;;10.60;100.00
54369;BME280;40266;52.434;17.056;2023-03-13T15:09:46;98934.55;;;10.61;100.00
54369;BME280;40266;52.434;17.056;2023-03-13T15:12:30;98936.85;;;10.60;100.00
54369;BME280;40266;52.434;17.056;2023-03-13T15:15:13;98936.09;;;10.61;100.00
54369;BME280;40266;52.434;17.056;2023-03-13T15:17:57;98934.89;;;10.64;100.00
54369;BME280;40266;52.434;17.056;2023-03-13T15:20:40;98938.73;;;10.68;100.00
54369;BME280;40266;52.434;17.056;2023-03-13T15:26:25;98926.48;;;10.76;100.00
54369;BME280;40266;52.434;17.056;2023-03-13T15:29:09;98922.02;;;10.78;100.00
54369;BME280;40266;52.434;17.056;2023-03-13T15:31:52;98924.61;;;10.79;100.00
54369;BME280;40266;52.434;17.056;2023-03-13T15:34:35;98919.92;;;10.79;100.00
54369;BME280;40266;52.434;17.056;2023-03-13T15:37:19;98919.04;;;10.79;100.00
54369;BME280;40266;52.434;17.056;2023-03-13T15:40:13;98915.98;;;10.77;100.00
54369;BME280;40266;52.434;17.056;2023-03-13T15:42:56;98916.49;;;10.77;100.00
54369;BME280;40266;52.434;17.056;2023-03-13T15:46:00;98912.82;;;10.77;100.00
54369;BME280;40266;52.434;17.056;2023-03-13T15:48:47;98911.94;;;10.77;100.00
54369;BME280;40266;52.434;17.056;2023-03-13T15:51:30;98909.00;;;10.76;100.00
54369;BME280;40266;52.434;17.056;2023-03-13T15:54:14;98907.62;;;10.77;100.00
54369;BME280;40266;52.434;17.056;2023-03-13T15:56:58;98902.84;;;10.78;100.00
54369;BME280;40266;52.434;17.056;2023-03-13T15:59:41;98896.40;;;10.77;100.00
54369;BME280;40266;52.434;17.056;2023-03-13T16:02:26;98902.31;;;10.78;100.00
54369;BME280;40266;52.434;17.056;2023-03-13T16:05:09;98904.63;;;10.77;100.00
54369;BME280;40266;52.434;17.056;2023-03-13T16:07:52;98897.03;;;10.75;100.00
54369;BME280;40266;52.434;17.056;2023-03-13T16:10:35;98890.88;;;10.76;100.00
54369;BME280;40266;52.434;17.056;2023-03-13T16:13:19;98884.53;;;10.77;100.00
54369;BME280;40266;52.434;17.056;2023-03-13T16:16:19;98885.98;;;10.76;100.00
54369;BME280;40266;52.434;17.056;2023-03-13T16:19:03;98881.39;;;10.77;100.00
54369;BME280;40266;52.434;17.056;2023-03-13T16:21:49;98873.98;;;10.79;100.00
54369;BME280;40266;52.434;17.056;2023-03-13T16:24:34;98882.48;;;10.81;100.00
54369;BME280;40266;52.434;17.056;2023-03-13T16:27:19;98877.52;;;10.82;100.00
54369;BME280;40266;52.434;17.056;2023-03-13T16:32:56;98886.27;;;10.85;100.00
54369;BME280;40266;52.434;17.056;2023-03-13T16:35:40;98892.14;;;10.86;100.00
54369;BME280;40266;52.434;17.056;2023-03-13T16:38:23;98889.99;;;10.88;100.00
54369;BME280;40266;52.434;17.056;2023-03-13T16:41:17;98886.15;;;10.88;100.00
54369;BME280;40266;52.434;17.056;2023-03-13T16:44:00;98887.77;;;10.90;100.00
54369;BME280;40266;52.434;17.056;2023-03-13T16:46:44;98885.91;;;10.89;100.00
54369;BME280;40266;52.434;17.056;2023-03-13T16:49:46;98892.02;;;10.89;100.00
54369;BME280;40266;52.434;17.056;2023-03-13T16:52:29;98893.01;;;10.86;100.00
54369;BME280;40266;52.434;17.056;2023-03-13T16:55:12;98893.10;;;10.85;100.00
54369;BME280;40266;52.434;17.056;2023-03-13T16:57:58;98888.50;;;10.82;100.00
54369;BME280;40266;52.434;17.056;2023-03-13T17:00:42;98895.40;;;10.81;100.00
54369;BME280;40266;52.434;17.056;2023-03-13T17:03:41;98893.77;;;10.78;100.00
54369;BME280;40266;52.434;17.056;2023-03-13T17:06:31;98892.38;;;10.82;100.00
54369;BME280;40266;52.434;17.056;2023-03-13T17:09:18;98887.72;;;10.84;100.00
54369;BME280;40266;52.434;17.056;2023-03-13T17:12:01;98887.70;;;10.85;100.00
54369;BME280;40266;52.434;17.056;2023-03-13T17:14:44;98887.54;;;10.84;100.00
54369;BME280;40266;52.434;17.056;2023-03-13T17:17:32;98890.66;;;10.85;100.00
54369;BME280;40266;52.434;17.056;2023-03-13T17:20:22;98885.91;;;10.85;100.00
54369;BME280;40266;52.434;17.056;2023-03-13T17:23:06;98879.95;;;10.86;100.00
54369;BME280;40266;52.434;17.056;2023-03-13T17:25:49;98872.83;;;10.85;100.00
54369;BME280;40266;52.434;17.056;2023-03-13T17:28:32;98878.98;;;10.84;100.00
54369;BME280;40266;52.434;17.056;2023-03-13T17:31:15;98876.18;;;10.85;100.00
54369;BME280;40266;52.434;17.056;2023-03-13T17:33:59;98880.80;;;10.83;100.00
54369;BME280;40266;52.434;17.056;2023-03-13T17:36:47;98876.50;;;10.81;100.00
54369;BME280;40266;52.434;17.056;2023-03-13T17:39:30;98875.13;;;10.81;100.00
54369;BME280;40266;52.434;17.056;2023-03-13T17:42:14;98872.69;;;10.81;100.00
54369;BME280;40266;52.434;17.056;2023-03-13T17:44:57;98878.82;;;10.80;100.00
54369;BME280;40266;52.434;17.056;2023-03-13T17:47:42;98872.23;;;10.80;100.00
54369;BME280;40266;52.434;17.056;2023-03-13T17:50:26;98878.79;;;10.81;100.00
54369;BME280;40266;52.434;17.056;2023-03-13T17:53:09;98868.95;;;10.82;100.00
54369;BME280;40266;52.434;17.056;2023-03-13T17:56:01;98867.20;;;10.83;100.00
54369;BME280;40266;52.434;17.056;2023-03-13T17:58:49;98866.30;;;10.83;100.00
54369;BME280;40266;52.434;17.056;2023-03-13T18:01:33;98861.73;;;10.83;99.98
54369;BME280;40266;52.434;17.056;2023-03-13T18:04:17;98855.65;;;10.83;99.90
54369;BME280;40266;52.434;17.056;2023-03-13T18:07:00;98848.94;;;10.81;99.62
54369;BME280;40266;52.434;17.056;2023-03-13T18:09:43;98843.36;;;10.76;99.40
54369;BME280;40266;52.434;17.056;2023-03-13T18:12:29;98849.40;;;10.75;99.35
54369;BME280;40266;52.434;17.056;2023-03-13T18:15:12;98844.13;;;10.71;99.20
54369;BME280;40266;52.434;17.056;2023-03-13T18:18:16;98845.02;;;10.68;99.03
54369;BME280;40266;52.434;17.056;2023-03-13T18:21:08;98843.82;;;10.63;98.98